createdAt,value
2023-04-18T00:00:11.404Z,4.40
2023-04-18T00:02:44.372Z,7.00
2023-04-18T00:05:12.924Z,5.40
2023-04-18T00:07:41.657Z,5.50
2023-04-18T00:10:10.460Z,7.10
2023-04-18T00:12:39.338Z,5.00
2023-04-18T00:15:12.012Z,5.30
2023-04-18T00:17:41.402Z,3.40
2023-04-18T00:20:11.472Z,6.60
2023-04-18T00:22:42.983Z,4.00
2023-04-18T00:25:11.566Z,4.10
2023-04-18T00:27:40.176Z,3.20
2023-04-18T00:30:10.410Z,3.30
2023-04-18T00:35:09.051Z,6.00
2023-04-18T00:37:37.553Z,8.70
2023-04-18T00:40:06.981Z,4.60
2023-04-18T00:42:35.851Z,10.10
2023-04-18T00:45:04.899Z,4.20
2023-04-18T00:47:33.612Z,4.40
2023-04-18T00:50:02.827Z,4.10
2023-04-18T00:52:34.076Z,8.00
2023-04-18T00:55:07.194Z,6.60
2023-04-18T00:57:36.458Z,6.10
2023-04-18T01:00:10.505Z,4.70
2023-04-18T01:02:40.116Z,6.10
2023-04-18T01:05:08.977Z,6.10
2023-04-18T01:07:41.971Z,8.40
2023-04-18T01:10:12.393Z,5.10
2023-04-18T01:12:40.981Z,6.90
2023-04-18T01:15:09.857Z,7.30
2023-04-18T01:17:42.567Z,9.50
2023-04-18T01:20:12.554Z,8.50
2023-04-18T01:22:41.747Z,6.60
2023-04-18T01:25:10.950Z,7.60
2023-04-18T01:27:39.319Z,8.00
2023-04-18T01:30:08.810Z,4.90
2023-04-18T01:32:38.053Z,6.70
2023-04-18T01:35:07.435Z,13.40
2023-04-18T01:37:36.524Z,8.60
2023-04-18T01:40:06.129Z,8.50
2023-04-18T01:42:34.915Z,10.70
2023-04-18T01:45:04.324Z,11.40
2023-04-18T01:47:33.019Z,10.70
2023-04-18T01:50:02.176Z,9.10
2023-04-18T01:52:31.299Z,7.70
2023-04-18T01:54:59.678Z,12.00
2023-04-18T01:57:29.181Z,7.40
2023-04-18T01:59:57.562Z,14.70
2023-04-18T02:02:26.390Z,8.60
2023-04-18T02:04:54.830Z,8.90
2023-04-18T02:07:23.743Z,20.30
2023-04-18T02:12:22.267Z,8.00
2023-04-18T02:14:53.565Z,12.80
2023-04-18T02:22:22.505Z,7.10
2023-04-18T02:27:20.077Z,9.20
2023-04-18T02:29:48.549Z,17.70
2023-04-18T02:32:17.136Z,12.10
2023-04-18T02:34:46.227Z,6.20
2023-04-18T02:37:17.879Z,12.30
2023-04-18T02:39:46.374Z,13.60
2023-04-18T02:42:14.958Z,6.90
2023-04-18T02:44:43.423Z,9.20
2023-04-18T02:47:12.017Z,9.20
2023-04-18T02:49:42.644Z,6.90
2023-04-18T02:52:11.230Z,9.80
2023-04-18T02:54:39.833Z,8.70
2023-04-18T02:57:12.213Z,11.00
2023-04-18T02:59:54.072Z,8.00
2023-04-18T03:02:41.608Z,6.20
2023-04-18T03:05:29.945Z,8.80
2023-04-18T03:10:29.056Z,7.80
2023-04-18T03:12:57.637Z,10.20
2023-04-18T03:15:26.357Z,10.10
2023-04-18T03:17:55.046Z,7.90
2023-04-18T03:20:24.438Z,7.00
2023-04-18T03:25:25.600Z,9.60
2023-04-18T03:27:54.973Z,10.50
2023-04-18T03:30:24.723Z,9.60
2023-04-18T03:32:56.564Z,6.00
2023-04-18T03:35:25.540Z,7.90
2023-04-18T03:37:53.917Z,9.30
2023-04-18T03:40:27.004Z,9.00
2023-04-18T03:42:59.887Z,14.90
2023-04-18T03:45:28.579Z,9.20
2023-04-18T03:47:57.627Z,7.90
2023-04-18T03:50:27.292Z,8.40
2023-04-18T03:52:56.370Z,8.00
2023-04-18T03:55:25.985Z,14.40
2023-04-18T03:57:55.805Z,11.60
2023-04-18T04:00:28.168Z,10.30
2023-04-18T04:03:08.263Z,9.30
2023-04-18T04:05:37.724Z,7.60
2023-04-18T04:08:07.085Z,6.90
2023-04-18T04:10:36.334Z,12.10
2023-04-18T04:13:07.432Z,7.80
2023-04-18T04:15:43.296Z,8.90
2023-04-18T04:18:14.474Z,12.80
2023-04-18T04:20:49.504Z,10.20
2023-04-18T04:23:38.972Z,10.20
2023-04-18T04:26:08.712Z,11.40
2023-04-18T04:28:53.632Z,12.90
2023-04-18T04:31:25.359Z,14.60
2023-04-18T04:33:54.508Z,12.50
2023-04-18T04:36:27.488Z,11.00
2023-04-18T04:38:59.861Z,14.30
2023-04-18T04:41:33.971Z,18.30
2023-04-18T04:44:02.562Z,13.90
2023-04-18T04:46:34.311Z,11.50
2023-04-18T04:49:06.689Z,20.10
2023-04-18T04:51:36.187Z,20.60
2023-04-18T04:54:04.666Z,16.80
2023-04-18T04:56:34.067Z,19.70
2023-04-18T04:59:03.455Z,14.40
2023-04-18T05:01:37.113Z,23.10
2023-04-18T05:04:06.267Z,23.80
2023-04-18T05:06:34.958Z,18.10
2023-04-18T05:09:05.690Z,16.50
2023-04-18T05:11:34.514Z,23.20
2023-04-18T05:14:03.266Z,16.50
2023-04-18T05:16:34.015Z,20.40
2023-04-18T05:19:03.345Z,13.70
2023-04-18T05:21:34.237Z,19.90
2023-04-18T05:26:34.246Z,26.50
2023-04-18T05:29:09.071Z,18.00
2023-04-18T05:31:39.580Z,29.40
2023-04-18T05:34:13.423Z,20.20
2023-04-18T05:36:44.367Z,30.10
2023-04-18T05:39:14.243Z,26.00
2023-04-18T05:41:43.210Z,27.10
2023-04-18T05:44:11.791Z,23.90
2023-04-18T05:46:41.552Z,26.70
2023-04-18T05:49:11.106Z,18.80
2023-04-18T05:51:39.800Z,22.20
2023-04-18T05:54:09.000Z,13.80
2023-04-18T05:56:39.722Z,39.40
2023-04-18T05:59:09.305Z,22.50
2023-04-18T06:01:37.811Z,23.80
2023-04-18T06:04:06.538Z,21.70
2023-04-18T06:06:36.083Z,18.60
2023-04-18T06:09:04.969Z,28.50
2023-04-18T06:11:36.654Z,26.80
2023-04-18T06:14:05.664Z,20.50
2023-04-18T06:16:34.564Z,25.90
2023-04-18T06:19:04.031Z,20.40
2023-04-18T06:21:32.697Z,20.40
2023-04-18T06:24:01.912Z,20.50
2023-04-18T06:26:32.219Z,16.10
2023-04-18T06:29:01.523Z,17.60
2023-04-18T06:31:30.603Z,30.70
2023-04-18T06:34:00.065Z,24.70
2023-04-18T06:36:29.641Z,27.10
2023-04-18T06:38:58.206Z,22.50
2023-04-18T06:41:26.585Z,57.50
2023-04-18T06:44:03.737Z,18.50
2023-04-18T06:46:33.325Z,21.60
2023-04-18T06:49:02.171Z,22.90
2023-04-18T06:51:31.876Z,21.30
2023-04-18T06:54:02.598Z,25.10
2023-04-18T06:56:36.217Z,16.80
2023-04-18T06:59:05.408Z,19.00
2023-04-18T07:01:34.422Z,16.80
2023-04-18T07:04:03.172Z,22.00
2023-04-18T07:06:33.101Z,23.60
2023-04-18T07:09:02.956Z,24.50
2023-04-18T07:11:31.937Z,16.20
2023-04-18T07:14:00.717Z,18.20
2023-04-18T07:16:29.200Z,22.00
2023-04-18T07:18:57.867Z,21.10
2023-04-18T07:21:26.856Z,18.60
2023-04-18T07:23:55.644Z,26.60
2023-04-18T07:26:24.332Z,28.90
2023-04-18T07:28:53.044Z,20.60
2023-04-18T07:31:22.470Z,17.40
2023-04-18T07:33:51.848Z,11.70
2023-04-18T07:36:22.856Z,17.50
2023-04-18T07:38:52.177Z,14.80
2023-04-18T07:41:21.428Z,19.80
2023-04-18T07:43:50.171Z,18.90
2023-04-18T07:46:19.381Z,15.40
2023-04-18T07:48:48.141Z,20.10
2023-04-18T07:51:17.047Z,18.00
2023-04-18T07:53:46.476Z,24.70
2023-04-18T07:56:16.379Z,14.20
2023-04-18T07:58:45.991Z,16.40
2023-04-18T08:01:18.743Z,22.60
2023-04-18T08:03:48.544Z,18.70
2023-04-18T08:06:17.876Z,11.90
2023-04-18T08:08:46.809Z,21.20
2023-04-18T08:11:16.266Z,23.90
2023-04-18T08:13:45.034Z,23.70
2023-04-18T08:16:16.859Z,21.20
2023-04-18T08:18:46.408Z,24.10
2023-04-18T08:21:16.019Z,15.10
2023-04-18T08:23:45.025Z,18.90
2023-04-18T08:26:14.496Z,17.80
2023-04-18T08:28:46.604Z,16.20
2023-04-18T08:31:17.567Z,15.20
2023-04-18T08:33:46.760Z,15.10
2023-04-18T08:36:16.234Z,21.60
2023-04-18T08:38:48.133Z,15.50
2023-04-18T08:41:17.114Z,19.40
2023-04-18T08:43:49.141Z,10.60
2023-04-18T08:46:17.880Z,17.10
2023-04-18T08:48:49.812Z,18.00
2023-04-18T08:51:18.968Z,11.00
2023-04-18T08:53:49.103Z,18.80
2023-04-18T08:56:22.577Z,10.70
2023-04-18T08:58:50.977Z,12.30
2023-04-18T09:01:20.237Z,22.50
2023-04-18T09:03:48.963Z,17.20
2023-04-18T09:06:19.600Z,13.60
2023-04-18T09:09:01.476Z,17.00
2023-04-18T09:11:31.922Z,20.60
2023-04-18T09:14:01.187Z,16.50
2023-04-18T09:16:34.630Z,19.30
2023-04-18T09:19:15.365Z,15.10
2023-04-18T09:21:49.462Z,14.70
2023-04-18T09:24:24.487Z,16.10
2023-04-18T09:26:57.654Z,22.10
2023-04-18T09:29:47.628Z,14.50
2023-04-18T09:32:25.495Z,21.40
2023-04-18T09:34:59.765Z,13.00
2023-04-18T09:37:30.140Z,17.40
2023-04-18T09:42:28.993Z,15.40
2023-04-18T09:45:06.038Z,24.80
2023-04-18T09:47:36.852Z,25.20
2023-04-18T09:50:07.818Z,23.90
2023-04-18T09:52:38.746Z,19.30
2023-04-18T09:55:15.820Z,15.30
2023-04-18T09:57:48.677Z,17.20
2023-04-18T10:00:25.761Z,22.20
2023-04-18T10:02:59.359Z,23.50
2023-04-18T10:05:31.852Z,22.80
2023-04-18T10:08:01.087Z,15.80
2023-04-18T10:10:32.601Z,27.90
2023-04-18T10:13:03.585Z,20.30
2023-04-18T10:15:32.904Z,20.90
2023-04-18T10:18:06.082Z,24.50
2023-04-18T10:20:35.670Z,16.70
2023-04-18T10:23:36.823Z,15.60
2023-04-18T10:26:08.798Z,18.00
2023-04-18T10:28:55.225Z,10.90
2023-04-18T10:31:26.739Z,23.70
2023-04-18T10:34:05.397Z,25.30
2023-04-18T10:36:36.397Z,28.50
2023-04-18T10:39:24.511Z,16.90
2023-04-18T10:41:54.110Z,18.90
2023-04-18T10:44:23.384Z,23.00
2023-04-18T10:46:52.498Z,28.40
2023-04-18T10:49:27.869Z,22.20
2023-04-18T10:52:00.012Z,22.80
2023-04-18T10:54:56.963Z,15.70
2023-04-18T10:57:41.116Z,17.10
2023-04-18T11:00:14.083Z,19.70
2023-04-18T11:02:49.297Z,23.30
2023-04-18T11:05:29.515Z,24.80
2023-04-18T11:07:58.353Z,24.90
2023-04-18T11:10:27.284Z,19.10
2023-04-18T11:13:01.287Z,19.60
2023-04-18T11:15:30.986Z,22.90
2023-04-18T11:18:04.159Z,15.80
2023-04-18T11:20:39.970Z,15.70
2023-04-18T11:23:20.587Z,17.60
2023-04-18T11:25:50.671Z,23.20
2023-04-18T11:28:21.557Z,17.00
2023-04-18T11:30:50.052Z,12.50
2023-04-18T11:33:19.297Z,17.30
2023-04-18T11:35:48.569Z,17.70
2023-04-18T11:38:18.806Z,17.20
2023-04-18T11:40:48.625Z,19.50
2023-04-18T11:45:56.876Z,18.30
2023-04-18T11:48:39.004Z,11.10
2023-04-18T11:51:08.199Z,15.30
2023-04-18T11:53:38.215Z,16.10
2023-04-18T11:58:36.573Z,11.60
2023-04-18T12:01:25.163Z,12.80
2023-04-18T12:04:04.149Z,18.20
2023-04-18T12:06:50.110Z,19.70
2023-04-18T12:09:18.870Z,26.20
2023-04-18T12:12:00.255Z,27.40
2023-04-18T12:14:28.852Z,18.70
2023-04-18T12:16:57.223Z,19.10
2023-04-18T12:19:27.962Z,19.50
2023-04-18T12:21:57.452Z,12.40
2023-04-18T12:24:26.609Z,12.10
2023-04-18T12:26:58.366Z,19.40
2023-04-18T12:29:27.597Z,21.50
2023-04-18T12:31:56.203Z,22.00
2023-04-18T12:34:25.410Z,15.60
2023-04-18T12:36:54.077Z,24.70
2023-04-18T12:39:22.847Z,15.30
2023-04-18T12:41:51.443Z,18.20
2023-04-18T12:44:20.020Z,22.80
2023-04-18T12:46:48.666Z,17.90
2023-04-18T12:49:17.593Z,20.80
2023-04-18T12:51:46.588Z,17.50
2023-04-18T12:54:15.231Z,16.30
2023-04-18T12:56:46.307Z,20.00
2023-04-18T12:59:14.911Z,15.20
2023-04-18T13:01:43.660Z,27.80
2023-04-18T13:04:13.182Z,14.80
2023-04-18T13:06:42.403Z,15.60
2023-04-18T13:09:11.092Z,19.30
2023-04-18T13:11:39.657Z,12.70
2023-04-18T13:14:08.348Z,20.00
2023-04-18T13:16:37.188Z,14.00
2023-04-18T13:19:05.966Z,11.90
2023-04-18T13:21:34.708Z,17.80
2023-04-18T13:24:03.302Z,16.30
2023-04-18T13:26:35.872Z,13.60
2023-04-18T13:29:04.862Z,18.40
2023-04-18T13:31:33.880Z,13.60
2023-04-18T13:34:02.535Z,13.90
2023-04-18T13:36:32.054Z,17.10
2023-04-18T13:41:29.825Z,16.60
2023-04-18T13:43:58.612Z,10.70
2023-04-18T13:46:28.021Z,18.00
2023-04-18T13:48:56.705Z,14.10
2023-04-18T13:51:26.099Z,11.00
2023-04-18T13:53:55.018Z,14.90
2023-04-18T13:56:23.888Z,17.90
2023-04-18T13:58:52.464Z,16.90
2023-04-18T14:01:21.301Z,13.80
2023-04-18T14:03:50.348Z,16.60
2023-04-18T14:06:18.926Z,14.40
2023-04-18T14:08:52.167Z,11.80
2023-04-18T14:11:21.255Z,13.20
2023-04-18T14:13:50.411Z,12.80
2023-04-18T14:16:19.875Z,16.00
2023-04-18T14:18:48.506Z,16.60
2023-04-18T14:21:17.175Z,11.90
2023-04-18T14:23:46.079Z,13.30
2023-04-18T14:26:14.774Z,13.60
2023-04-18T14:28:43.552Z,14.00
2023-04-18T14:31:13.726Z,12.00
2023-04-18T14:33:42.675Z,13.30
2023-04-18T14:36:11.245Z,21.80
2023-04-18T14:38:39.927Z,13.20
2023-04-18T14:41:08.614Z,13.10
2023-04-18T14:43:37.302Z,15.20
2023-04-18T14:46:12.357Z,10.20
2023-04-18T14:48:40.816Z,12.40
2023-04-18T14:51:09.422Z,19.90
2023-04-18T14:53:38.004Z,16.90
2023-04-18T14:56:07.094Z,15.00
2023-04-18T14:58:36.503Z,15.10
2023-04-18T15:01:05.788Z,13.00
2023-04-18T15:03:34.811Z,10.60
2023-04-18T15:06:04.293Z,17.40
2023-04-18T15:08:33.093Z,14.50
2023-04-18T15:11:01.628Z,17.10
2023-04-18T15:13:35.044Z,12.50
2023-04-18T15:16:06.713Z,14.20
2023-04-18T15:18:35.588Z,10.60
2023-04-18T15:21:04.299Z,15.10
2023-04-18T15:23:33.180Z,12.80
2023-04-18T15:26:01.561Z,13.10
2023-04-18T15:28:31.360Z,12.00
2023-04-18T15:31:00.170Z,9.00
2023-04-18T15:33:29.754Z,11.90
2023-04-18T15:35:58.441Z,12.30
2023-04-18T15:38:26.923Z,14.70
2023-04-18T15:40:55.944Z,13.30
2023-04-18T15:43:24.601Z,17.20
2023-04-18T15:45:53.094Z,9.90
2023-04-18T15:48:22.081Z,12.20
2023-04-18T15:50:51.578Z,9.20
2023-04-18T15:53:21.012Z,15.80
2023-04-18T15:55:49.565Z,12.40
2023-04-18T15:58:18.076Z,12.30
2023-04-18T16:00:47.044Z,14.80
2023-04-18T16:03:15.807Z,15.20
2023-04-18T16:05:44.311Z,14.80
2023-04-18T16:08:13.197Z,14.20
2023-04-18T16:10:41.790Z,11.80
2023-04-18T16:13:10.969Z,15.50
2023-04-18T16:15:42.238Z,14.30
2023-04-18T16:18:11.323Z,8.10
2023-04-18T16:20:40.223Z,11.30
2023-04-18T16:23:08.785Z,14.20
2023-04-18T16:25:38.260Z,18.10
2023-04-18T16:28:06.986Z,17.10
2023-04-18T16:30:35.696Z,16.20
2023-04-18T16:33:05.139Z,13.60
2023-04-18T16:35:34.881Z,15.90
2023-04-18T16:38:03.550Z,17.90
2023-04-18T16:40:33.377Z,14.90
2023-04-18T16:43:04.648Z,15.90
2023-04-18T16:45:33.309Z,9.90
2023-04-18T16:48:02.208Z,12.60
2023-04-18T16:50:31.212Z,11.10
2023-04-18T16:52:59.756Z,15.90
2023-04-18T16:55:30.066Z,12.80
2023-04-18T16:57:59.199Z,15.80
2023-04-18T17:00:28.204Z,14.50
2023-04-18T17:02:58.594Z,15.80
2023-04-18T17:05:27.453Z,14.60
2023-04-18T17:07:57.695Z,15.70
2023-04-18T17:10:27.846Z,13.60
2023-04-18T17:12:56.854Z,21.70
2023-04-18T17:15:27.674Z,23.80
2023-04-18T17:17:56.846Z,20.30
2023-04-18T17:22:57.536Z,15.90
2023-04-18T17:25:27.297Z,15.90
2023-04-18T17:27:56.165Z,13.60
2023-04-18T17:30:25.171Z,12.50
2023-04-18T17:32:54.618Z,13.10
2023-04-18T17:35:24.743Z,19.20
2023-04-18T17:37:55.608Z,17.00
2023-04-18T17:40:24.669Z,18.60
2023-04-18T17:42:53.673Z,13.60
2023-04-18T17:45:22.362Z,16.20
2023-04-18T17:47:51.589Z,17.50
2023-04-18T17:50:20.540Z,15.50
2023-04-18T17:52:50.039Z,8.70
2023-04-18T17:55:19.237Z,12.40
2023-04-18T17:57:47.823Z,19.00
2023-04-18T18:00:17.751Z,20.50
2023-04-18T18:02:47.020Z,16.70
2023-04-18T18:05:16.827Z,12.80
2023-04-18T18:07:48.368Z,15.50
2023-04-18T18:10:20.299Z,19.00
2023-04-18T18:12:49.726Z,17.40
2023-04-18T18:15:19.613Z,13.80
2023-04-18T18:17:51.338Z,19.90
2023-04-18T18:20:20.653Z,11.70
2023-04-18T18:22:52.573Z,15.50
2023-04-18T18:25:24.421Z,17.40
2023-04-18T18:27:56.048Z,15.30
2023-04-18T18:30:25.488Z,15.20
2023-04-18T18:32:59.487Z,14.10
2023-04-18T18:35:29.311Z,14.30
2023-04-18T18:38:00.486Z,13.60
2023-04-18T18:42:57.769Z,14.40
2023-04-18T18:45:28.080Z,14.50
2023-04-18T18:47:56.837Z,16.60
2023-04-18T18:50:25.770Z,13.90
2023-04-18T18:52:54.442Z,15.10
2023-04-18T18:55:23.973Z,12.80
2023-04-18T18:57:52.764Z,9.50
2023-04-18T19:00:21.382Z,16.40
2023-04-18T19:02:57.921Z,13.20
2023-04-18T19:05:30.019Z,10.60
2023-04-18T19:07:59.459Z,14.80
2023-04-18T19:10:27.935Z,11.90
2023-04-18T19:12:57.040Z,9.20
2023-04-18T19:15:26.031Z,16.00
2023-04-18T19:17:55.086Z,18.90
2023-04-18T19:20:28.057Z,15.60
2023-04-18T19:23:00.799Z,12.50
2023-04-18T19:25:29.837Z,17.00
2023-04-18T19:27:58.857Z,12.80
2023-04-18T19:30:27.784Z,13.20
2023-04-18T19:32:56.594Z,12.50
2023-04-18T19:35:25.081Z,10.50
2023-04-18T19:38:01.724Z,12.60
2023-04-18T19:40:30.618Z,14.60
2023-04-18T19:42:59.467Z,12.40
2023-04-18T19:45:32.143Z,20.20
2023-04-18T19:48:00.988Z,13.40
2023-04-18T19:50:30.100Z,12.40
2023-04-18T19:52:58.966Z,9.30
2023-04-18T19:55:27.833Z,13.50
2023-04-18T19:58:05.482Z,15.60
2023-04-18T20:00:34.429Z,10.40
2023-04-18T20:03:03.429Z,16.40
2023-04-18T20:05:32.647Z,7.10
2023-04-18T20:08:01.293Z,10.00
2023-04-18T20:10:30.082Z,10.20
2023-04-18T20:12:58.873Z,11.40
2023-04-18T20:15:30.775Z,10.10
2023-04-18T20:17:59.453Z,12.40
2023-04-18T20:20:28.258Z,7.50
2023-04-18T20:22:57.096Z,9.80
2023-04-18T20:25:25.678Z,13.70
2023-04-18T20:27:54.977Z,14.80
2023-04-18T20:30:26.305Z,7.00
2023-04-18T20:32:54.949Z,12.40
2023-04-18T20:35:23.909Z,11.30
2023-04-18T20:37:52.277Z,10.30
2023-04-18T20:40:21.745Z,14.60
2023-04-18T20:42:50.368Z,7.30
2023-04-18T20:45:19.052Z,9.00
2023-04-18T20:47:48.188Z,10.90
2023-04-18T20:50:18.591Z,13.70
2023-04-18T20:52:47.973Z,11.70
2023-04-18T20:55:17.002Z,9.70
2023-04-18T20:57:45.594Z,7.40
2023-04-18T21:00:14.340Z,10.70
2023-04-18T21:02:44.708Z,6.30
2023-04-18T21:08:52.429Z,10.50
2023-04-18T21:11:20.381Z,12.20
2023-04-18T21:13:47.734Z,8.90
2023-04-18T21:16:15.136Z,12.60
2023-04-18T21:18:42.338Z,11.50
2023-04-18T21:21:10.005Z,6.70
2023-04-18T21:23:42.308Z,8.40
2023-04-18T21:26:12.903Z,10.20
2023-04-18T21:28:59.559Z,7.80
2023-04-18T21:31:28.424Z,11.40
2023-04-18T21:33:56.470Z,16.80
2023-04-18T21:36:24.139Z,9.60
2023-04-18T21:38:52.100Z,15.60
2023-04-18T21:41:20.169Z,9.10
2023-04-18T21:43:47.835Z,11.00
2023-04-18T21:46:15.400Z,16.90
2023-04-18T21:48:44.897Z,10.90
2023-04-18T21:51:13.508Z,10.80
2023-04-18T21:53:40.842Z,11.60
2023-04-18T21:56:08.084Z,8.50
2023-04-18T21:58:35.541Z,11.20
2023-04-18T22:01:02.750Z,11.90
2023-04-18T22:03:31.184Z,7.30
2023-04-18T22:05:58.583Z,12.80
2023-04-18T22:08:25.936Z,9.50
2023-04-18T22:10:57.795Z,5.60
2023-04-18T22:13:29.606Z,10.30
2023-04-18T22:15:57.777Z,9.50
2023-04-18T22:18:24.847Z,11.00
2023-04-18T22:20:53.203Z,13.40
2023-04-18T22:23:20.559Z,12.20
2023-04-18T22:25:48.011Z,11.50
2023-04-18T22:28:15.475Z,11.00
2023-04-18T22:30:42.964Z,15.30
2023-04-18T22:33:10.180Z,11.20
2023-04-18T22:35:37.250Z,12.50
2023-04-18T22:38:04.477Z,10.00
2023-04-18T22:40:31.779Z,14.30
2023-04-18T22:42:58.876Z,15.70
2023-04-18T22:45:26.027Z,9.70
2023-04-18T22:47:53.322Z,8.40
2023-04-18T22:50:20.764Z,13.80
2023-04-18T22:52:47.992Z,15.80
2023-04-18T22:55:16.128Z,11.00
2023-04-18T22:57:43.514Z,18.70
2023-04-18T23:00:11.703Z,12.30
2023-04-18T23:02:38.841Z,13.60
2023-04-18T23:05:08.451Z,11.70
2023-04-18T23:07:36.539Z,13.70
2023-04-18T23:10:06.042Z,13.10
2023-04-18T23:12:33.176Z,14.60
2023-04-18T23:15:00.634Z,12.40
2023-04-18T23:17:27.799Z,16.60
2023-04-18T23:19:54.829Z,8.50
2023-04-18T23:22:23.731Z,11.60
2023-04-18T23:24:51.180Z,18.80
2023-04-18T23:27:18.842Z,11.80
2023-04-18T23:29:47.217Z,17.30
2023-04-18T23:32:14.694Z,14.30
2023-04-18T23:34:41.931Z,13.70
2023-04-18T23:37:11.635Z,7.30
2023-04-18T23:39:38.814Z,7.30
2023-04-18T23:42:05.842Z,11.00
2023-04-18T23:44:33.493Z,15.70
2023-04-18T23:47:00.593Z,11.90
2023-04-18T23:49:28.006Z,13.60
2023-04-18T23:51:55.149Z,12.50
2023-04-18T23:54:22.335Z,12.00
2023-04-18T23:56:49.969Z,11.90
2023-04-18T23:59:17.005Z,10.70
